Park, Kentucky
Current Conditions -  °F | °C
As of 10:55 AM on Wednesday 22 Oct 2014 (Local Time) from KGLW Reporting Station
Clear Clear  
Wind Chill: 53°   Ceiling: Unl
Heat Index: 53°   Visibility: 10mi
Dew Point: 37°   Wind: 6mph
Humidity: 55%   Direction: 30°NNE
Pressure: 30.28"   Gusts: NA
Location:  37.2021°N, 85.902°W
Report Text: KGLW 221555Z AUTO 03005KT 10SM CLR 12/03 A3028 RMK AO2 T01170030
Loading
Personal Weather Stations






























Interactive Weather Map
Tropical Storm Tracking
New forecast layout! Learn more

10-Day Weather Forecast

Advertisements
Track Severe Weather on mobile